Time;durP1;ratioP1;P1;durP2;ratioP2;P2;SDS_P1;SDS_P2;PMS_P1;PMS_P2;Temp;Humidity;BMP_temperature;BMP_pressure;BME280_temperature;BME280_humidity;BME280_pressure;Samples;Min_cycle;Max_cycle;Signal;HPM_P1;HPM_P2
2022/06/20 00:01:22;;;;;;;8.80;8.40;;;;;;;15.30;75.69;92943.66;5003645;28;20235;-76
2022/06/20 00:03:48;;;;;;;9.97;9.37;;;;;;;15.19;76.56;92943.09;5002674;28;20246;-77
2022/06/20 00:06:16;;;;;;;9.90;9.40;;;;;;;15.12;77.13;92937.47;4994268;28;20243;-77
2022/06/20 00:08:42;;;;;;;9.33;8.83;;;;;;;15.24;76.91;92931.69;4981756;28;20247;-75
2022/06/20 00:11:16;;;;;;;9.00;8.50;;;;;;;15.13;76.97;92933.00;4980391;28;20248;-76
2022/06/20 00:13:45;;;;;;;9.17;8.67;;;;;;;15.13;77.11;92933.78;4982979;28;20212;-76
2022/06/20 00:16:16;;;;;;;10.07;9.57;;;;;;;15.08;77.37;92930.50;4979036;28;20241;-76
2022/06/20 00:18:43;;;;;;;9.77;9.27;;;;;;;15.04;78.15;92934.78;4981785;28;20169;-77
2022/06/20 00:21:15;;;;;;;9.73;9.13;;;;;;;14.88;79.01;92941.47;4983858;28;20247;-76
2022/06/20 00:23:41;;;;;;;8.97;8.57;;;;;;;14.91;78.43;92935.59;4982599;28;20191;-76
2022/06/20 00:26:07;;;;;;;9.40;8.80;;;;;;;14.94;77.59;92946.28;4981801;28;20228;-76
2022/06/20 00:28:32;;;;;;;9.77;9.13;;;;;;;14.82;76.68;92908.47;4986589;28;20200;-76
2022/06/20 00:30:58;;;;;;;8.70;8.10;;;;;;;14.85;77.43;92936.78;4988316;28;20243;-76
2022/06/20 00:33:24;;;;;;;9.50;8.80;;;;;;;14.95;77.57;92923.41;5003054;28;20180;-76
2022/06/20 00:35:50;;;;;;;9.30;8.80;;;;;;;14.81;77.86;92933.97;5003576;28;20250;-76
2022/06/20 00:38:18;;;;;;;8.60;8.20;;;;;;;14.93;77.01;92938.69;4999638;28;20215;-76
2022/06/20 00:40:48;;;;;;;10.63;9.60;;;;;;;14.91;76.62;92938.25;5000614;28;20227;-76
2022/06/20 00:43:22;;;;;;;10.40;9.63;;;;;;;14.72;76.72;92912.09;5000860;28;20243;-77
2022/06/20 00:45:49;;;;;;;9.50;8.87;;;;;;;14.73;77.75;92929.41;5004037;28;20859;-76
2022/06/20 00:48:19;;;;;;;9.53;9.03;;;;;;;14.65;77.79;92901.19;4990537;28;20234;-76
2022/06/20 00:50:48;;;;;;;8.47;8.07;;;;;;;14.81;77.38;92922.66;5004454;28;20239;-76
2022/06/20 00:53:41;;;;;;;10.17;9.57;;;;;;;14.62;78.92;92924.66;5007104;28;20171;-76
2022/06/20 00:56:15;;;;;;;9.10;8.60;;;;;;;14.69;78.59;92925.03;5004046;28;20226;-76
2022/06/20 00:58:49;;;;;;;9.17;8.77;;;;;;;14.63;77.76;92902.56;5005986;28;20183;-76
2022/06/20 01:01:16;;;;;;;9.20;8.80;;;;;;;14.61;78.33;92929.16;5004779;28;20224;-76
2022/06/20 01:03:48;;;;;;;8.80;8.43;;;;;;;14.18;80.28;92918.16;5003605;28;20250;-76
2022/06/20 01:06:25;;;;;;;8.60;7.90;;;;;;;14.11;81.11;92915.16;5003796;28;20358;-77
2022/06/20 01:08:57;;;;;;;7.93;7.57;;;;;;;14.30;80.89;92931.59;5004659;28;20191;-76
2022/06/20 01:11:26;;;;;;;9.27;8.73;;;;;;;14.37;79.82;92916.25;5003408;28;20211;-76
2022/06/20 01:13:53;;;;;;;9.37;8.87;;;;;;;14.27;80.25;92916.44;5004439;28;20230;-76
2022/06/20 01:16:27;;;;;;;8.13;7.73;;;;;;;14.21;80.42;92903.69;5006924;28;20246;-76
2022/06/20 01:18:55;;;;;;;8.73;8.33;;;;;;;13.95;80.10;92850.88;5007767;28;20179;-77
2022/06/20 01:21:27;;;;;;;9.60;9.10;;;;;;;14.21;80.43;92909.69;5005805;28;20246;-76
2022/06/20 01:24:02;;;;;;;9.07;8.60;;;;;;;14.17;80.74;92916.63;5004899;28;20187;-76
2022/06/20 01:27:11;;;;;;;9.83;9.23;;;;;;;14.17;80.02;92898.22;5005032;28;20251;-77
2022/06/20 01:29:37;;;;;;;9.03;8.63;;;;;;;14.31;79.80;92906.91;4934383;29;20198;-76
2022/06/20 01:32:04;;;;;;;9.13;8.63;;;;;;;14.21;80.61;92909.69;4987661;28;20291;-76
2022/06/20 01:34:31;;;;;;;9.40;8.90;;;;;;;13.99;80.72;92883.34;5004278;28;20222;-77
2022/06/20 01:39:47;;;;;;;8.67;8.17;;;;;;;14.25;79.79;92918.59;5005031;28;20186;-76
2022/06/20 01:42:20;;;;;;;8.93;8.53;;;;;;;14.01;79.56;92891.72;5002397;28;20243;-76
2022/06/20 01:44:52;;;;;;;9.37;8.87;;;;;;;14.05;80.23;92911.06;5004529;28;20187;-76
2022/06/20 01:47:18;;;;;;;8.63;8.23;;;;;;;13.86;80.17;92886.75;5003736;28;20231;-76
2022/06/20 01:49:46;;;;;;;8.83;8.43;;;;;;;13.97;80.38;92903.09;5004339;28;20259;-75
2022/06/20 01:52:27;;;;;;;8.17;7.87;;;;;;;13.89;80.24;92903.75;5005841;28;20228;-77
2022/06/20 01:55:01;;;;;;;8.57;8.10;;;;;;;13.93;78.86;92889.75;5004095;28;20221;-76
2022/06/20 01:57:31;;;;;;;8.83;8.43;;;;;;;14.04;79.30;92906.09;5002041;28;20234;-76
2022/06/20 02:00:06;;;;;;;9.00;8.60;;;;;;;14.14;78.68;92904.06;5006473;28;20226;-76
2022/06/20 02:02:38;;;;;;;9.40;8.80;;;;;;;14.20;78.43;92909.97;5002805;28;20219;-76
2022/06/20 02:05:07;;;;;;;9.50;8.63;;;;;;;13.96;78.13;92883.16;5003641;28;20187;-76
2022/06/20 02:07:32;;;;;;;9.50;9.00;;;;;;;13.98;78.57;92887.03;5000746;28;20239;-76
2022/06/20 02:10:00;;;;;;;8.87;8.37;;;;;;;14.14;78.74;92905.91;5002579;28;20180;-75
2022/06/20 02:12:26;;;;;;;8.50;8.07;;;;;;;14.21;78.34;92907.06;5003985;28;20204;-76
2022/06/20 02:14:57;;;;;;;9.50;8.90;;;;;;;14.12;77.65;92898.31;5002382;28;20204;-77
2022/06/20 02:17:31;;;;;;;9.80;9.30;;;;;;;13.92;78.52;92880.34;5003431;28;20252;-76
2022/06/20 02:20:00;;;;;;;9.50;9.00;;;;;;;13.82;80.01;92891.03;5004816;28;20185;-76
2022/06/20 02:22:26;;;;;;;8.63;8.27;;;;;;;13.65;80.82;92879.56;5003399;28;20224;-76
2022/06/20 02:24:56;;;;;;;9.90;9.30;;;;;;;13.61;80.52;92871.47;5002972;28;20200;-77
2022/06/20 02:27:32;;;;;;;8.97;8.53;;;;;;;13.70;80.13;92887.31;5004206;28;20238;-76
2022/06/20 02:29:59;;;;;;;8.33;7.93;;;;;;;13.73;79.48;92890.13;5005595;28;20186;-76
2022/06/20 02:32:33;;;;;;;9.07;8.57;;;;;;;13.79;79.62;92898.72;5006473;28;20219;-76
2022/06/20 02:34:59;;;;;;;8.73;8.33;;;;;;;13.72;79.76;92904.34;5003362;28;20239;-76
2022/06/20 02:37:26;;;;;;;9.03;7.83;;;;;;;13.60;79.34;92856.03;5003737;28;20288;-76
2022/06/20 02:39:58;;;;;;;8.67;8.27;;;;;;;13.83;78.55;92895.22;5000394;28;20183;-76
2022/06/20 02:42:32;;;;;;;8.50;8.10;;;;;;;13.53;78.95;92851.16;5003212;28;20242;-76
2022/06/20 02:44:58;;;;;;;9.67;9.13;;;;;;;13.65;79.57;92888.19;5006842;28;20191;-76
2022/06/20 02:47:25;;;;;;;8.60;8.20;;;;;;;13.76;80.37;92894.81;5007076;28;20219;-77
2022/06/20 02:49:54;;;;;;;9.30;8.80;;;;;;;13.69;80.27;92891.00;5007846;28;20187;-77
2022/06/20 02:52:25;;;;;;;9.17;8.67;;;;;;;13.60;80.47;92885.69;5006964;28;20207;-76
2022/06/20 02:54:52;;;;;;;9.27;8.87;;;;;;;13.60;80.45;92885.69;5003614;28;20203;-77
2022/06/20 02:57:42;;;;;;;8.57;8.17;;;;;;;13.61;79.71;92858.38;5004352;28;20243;-76
2022/06/20 03:00:14;;;;;;;9.70;9.10;;;;;;;14.10;77.88;92884.69;5005700;28;20196;-75
2022/06/20 03:02:45;;;;;;;8.20;7.80;;;;;;;14.25;77.48;92894.16;5003257;28;20223;-76
2022/06/20 03:05:12;;;;;;;8.47;8.13;;;;;;;14.59;75.99;92880.56;5004178;28;20265;-77
2022/06/20 03:07:40;;;;;;;9.10;8.60;;;;;;;15.51;72.75;92886.88;5002658;28;20252;-76
2022/06/20 03:10:19;;;;;;;8.93;8.33;;;;;;;16.36;68.53;92875.91;5004623;28;20270;-75
2022/06/20 03:12:45;;;;;;;10.27;9.57;;;;;;;17.72;63.62;92899.69;5003942;28;20208;-77
2022/06/20 03:15:12;;;;;;;9.53;9.03;;;;;;;18.71;59.68;92899.13;5004764;28;20267;-76
2022/06/20 03:17:40;;;;;;;8.07;7.77;;;;;;;19.61;56.08;92885.03;5003107;28;20219;-76
2022/06/20 03:20:11;;;;;;;9.37;8.77;;;;;;;20.66;53.55;92893.81;4999583;28;20837;-76
2022/06/20 03:22:47;;;;;;;8.47;8.03;;;;;;;21.50;50.22;92886.78;5003209;28;20242;-76
2022/06/20 03:25:14;;;;;;;8.53;7.93;;;;;;;21.58;50.12;92904.47;5003861;28;20204;-76
2022/06/20 03:27:42;;;;;;;8.90;8.43;;;;;;;20.77;51.95;92862.28;5005050;28;20222;-77
2022/06/20 03:30:35;;;;;;;7.87;7.47;;;;;;;20.55;53.17;92900.69;5002635;28;20193;-76
2022/06/20 03:33:05;;;;;;;8.35;7.47;;;;;;;20.53;53.67;92897.56;5004099;28;20214;-77
2022/06/20 03:35:33;;;;;;;8.20;7.70;;;;;;;20.39;54.65;92893.69;5004648;28;20214;-77
2022/06/20 03:38:02;;;;;;;9.00;8.43;;;;;;;21.41;51.60;92894.91;5004732;28;20191;-76
2022/06/20 03:40:29;;;;;;;8.68;8.18;;;;;;;21.14;52.25;92895.63;4983829;28;20210;-77
2022/06/20 03:42:57;;;;;;;8.40;8.00;;;;;;;22.20;49.86;92907.28;5001720;28;20251;-76
2022/06/20 03:45:27;;;;;;;8.75;8.15;;;;;;;21.20;51.79;92896.94;5002830;28;20188;-77
2022/06/20 03:48:01;;;;;;;8.13;7.63;;;;;;;19.80;56.28;92887.97;5003005;28;20207;-79
2022/06/20 03:50:35;;;;;;;9.35;8.77;;;;;;;20.53;54.83;92908.19;5001270;28;20196;-68
2022/06/20 03:53:02;;;;;;;8.52;8.02;;;;;;;20.80;53.80;92914.69;5005200;28;20191;-68
2022/06/20 03:55:43;;;;;;;8.95;8.38;;;;;;;20.60;54.65;92908.41;5002014;28;20214;-68
2022/06/20 03:58:24;;;;;;;8.50;8.10;;;;;;;20.54;54.93;92903.66;5003690;28;20345;-69
2022/06/20 04:00:59;;;;;;;9.63;8.95;;;;;;;21.38;52.30;92916.06;5001303;28;20230;-69
2022/06/20 04:03:33;;;;;;;8.68;8.10;;;;;;;20.21;54.91;92922.31;5001661;28;20208;-69
2022/06/20 04:06:04;;;;;;;7.72;7.32;;;;;;;19.00;60.04;92914.97;5001643;28;20236;-70
2022/06/20 04:10:57;;;;;;;9.67;8.93;;;;;;;19.04;60.43;92915.88;4999544;28;21011;-70
2022/06/20 04:11:18;;;;;;;10.97;10.27;;;;;;;19.38;59.88;92902.38;5002849;28;20234;-72
2022/06/20 04:14:05;;;;;;;11.43;10.07;;;;;;;19.71;58.58;92903.19;5001713;28;20217;-73
2022/06/20 04:16:39;;;;;;;10.17;9.57;;;;;;;19.46;58.63;92893.59;4999901;28;20237;-73
2022/06/20 04:19:19;;;;;;;10.00;9.40;;;;;;;18.88;61.08;92899.00;4999388;28;20196;-71
2022/06/20 04:21:51;;;;;;;10.13;9.43;;;;;;;18.83;61.67;92905.28;5003468;28;20244;-72
2022/06/20 04:24:33;;;;;;;11.30;10.43;;;;;;;18.34;63.04;92897.28;4998105;28;20252;-76
2022/06/20 04:27:22;;;;;;;9.97;9.37;;;;;;;18.24;64.78;92887.09;5001498;28;20301;-73
2022/06/20 04:29:54;;;;;;;10.00;9.10;;;;;;;19.18;62.23;92895.22;5002624;28;20280;-74
2022/06/20 04:32:30;;;;;;;11.07;10.37;;;;;;;19.14;62.73;92902.25;5000668;28;20228;-74
2022/06/20 04:35:21;;;;;;;9.93;9.30;;;;;;;21.53;54.39;92896.72;5002892;28;20219;-72
2022/06/20 04:38:12;;;;;;;10.07;9.27;;;;;;;24.29;45.73;92906.84;4981301;28;20221;-75
2022/06/20 04:40:43;;;;;;;11.40;10.57;;;;;;;22.52;50.15;92898.22;5002395;28;20254;-74
2022/06/20 04:43:08;;;;;;;9.27;8.77;;;;;;;21.21;54.35;92895.84;5000565;28;20197;-74
2022/06/20 04:46:12;;;;;;;10.80;10.00;;;;;;;20.82;56.04;92895.78;4999746;28;20203;-74
2022/06/20 04:48:37;;;;;;;10.18;9.57;;;;;;;19.87;59.33;92904.13;4982379;28;20189;-76
2022/06/20 04:51:08;;;;;;;10.18;9.57;;;;;;;19.48;60.27;92893.28;5000463;28;20232;-76
2022/06/20 04:53:39;;;;;;;10.60;9.85;;;;;;;19.16;60.90;92894.75;5001178;28;20184;-76
2022/06/20 04:56:10;;;;;;;11.43;10.70;;;;;;;18.33;63.59;92896.53;5002623;28;20258;-75
2022/06/20 04:59:01;;;;;;;10.88;10.18;;;;;;;18.03;65.24;92880.94;5000032;28;20206;-76
2022/06/20 05:01:31;;;;;;;11.30;10.50;;;;;;;18.73;62.67;92883.72;4996758;28;20247;-76
2022/06/20 05:04:07;;;;;;;11.23;10.40;;;;;;;19.32;58.81;92858.69;4999554;28;20868;-76
2022/06/20 05:06:37;;;;;;;10.43;9.73;;;;;;;21.54;53.34;92890.31;5000745;28;20249;-76
2022/06/20 05:09:10;;;;;;;10.60;9.90;;;;;;;21.69;53.39;92878.94;4999936;28;20196;-76
2022/06/20 05:11:42;;;;;;;9.77;9.18;;;;;;;21.75;52.25;92874.97;5000884;28;20222;-76
2022/06/20 05:14:43;;;;;;;10.23;9.43;;;;;;;25.61;43.22;92903.88;4998778;28;20209;-76
2022/06/20 05:17:23;;;;;;;9.85;8.95;;;;;;;25.69;40.54;92865.41;4994864;28;20229;-76
2022/06/20 05:19:53;;;;;;;10.60;9.80;;;;;;;30.00;33.04;92908.47;5001077;28;20195;-76
2022/06/20 05:22:24;;;;;;;9.48;8.68;;;;;;;31.49;29.92;92920.53;4998276;28;20312;-76
2022/06/20 05:24:53;;;;;;;8.80;8.13;;;;;;;27.26;36.04;92907.38;5001760;28;20190;-77
2022/06/20 05:27:21;;;;;;;9.80;9.20;;;;;;;24.64;41.55;92891.41;5002579;28;20540;-76
2022/06/20 05:29:49;;;;;;;10.23;9.52;;;;;;;23.54;45.47;92892.47;5002878;28;20255;-77
2022/06/20 05:32:24;;;;;;;10.50;9.63;;;;;;;22.96;47.32;92883.63;5002641;28;20242;-76
2022/06/20 05:34:56;;;;;;;9.98;9.27;;;;;;;24.02;45.13;92902.56;5004493;28;20213;-76
2022/06/20 05:37:37;;;;;;;11.00;10.10;;;;;;;27.62;37.53;92903.75;5004972;28;20256;-76
2022/06/20 05:40:06;;;;;;;9.82;9.02;;;;;;;32.11;29.78;92931.09;5004992;28;20187;-76
2022/06/20 05:42:31;;;;;;;9.88;8.80;;;;;;;32.16;27.66;92912.47;5005219;28;20235;-76
2022/06/20 05:44:57;;;;;;;9.48;8.75;;;;;;;32.46;28.00;92922.53;5007009;28;20171;-76
2022/06/20 05:47:30;;;;;;;9.73;8.80;;;;;;;33.57;26.34;92913.84;5004261;28;20780;-76
2022/06/20 05:50:04;;;;;;;9.48;8.20;;;;;;;34.97;25.13;92931.94;5003998;28;20191;-77
2022/06/20 05:52:30;;;;;;;8.98;8.25;;;;;;;35.76;23.51;92917.94;5003816;28;20227;-77
2022/06/20 05:55:13;;;;;;;9.20;8.30;;;;;;;36.95;22.01;92930.91;5004750;28;20207;-76
2022/06/20 05:57:42;;;;;;;9.48;8.70;;;;;;;33.90;25.76;92922.94;5005473;28;20271;-77
2022/06/20 06:00:17;;;;;;;8.77;8.18;;;;;;;37.07;21.81;92943.72;5005215;28;20212;-77
2022/06/20 06:02:49;;;;;;;8.30;7.57;;;;;;;36.58;22.42;92937.06;5001466;28;20219;-76
2022/06/20 06:05:21;;;;;;;9.75;7.78;;;;;;;35.74;23.10;92925.78;5002362;28;20196;-77
2022/06/20 06:08:19;;;;;;;7.65;7.05;;;;;;;35.64;22.74;92931.03;5003983;28;20243;-77
2022/06/20 06:10:56;;;;;;;9.43;8.63;;;;;;;37.22;21.36;92927.75;5004422;28;20234;-77
2022/06/20 06:13:24;;;;;;;8.13;7.47;;;;;;;32.53;26.12;92917.78;5001476;28;20183;-77
2022/06/20 06:19:00;;;;;;;7.97;7.32;;;;;;;35.11;24.13;92907.16;5002377;28;20222;-77
2022/06/20 06:21:27;;;;;;;6.70;6.30;;;;;;;37.22;21.42;92914.88;5003502;28;20227;-74
2022/06/20 06:23:53;;;;;;;10.60;9.77;;;;;;;34.48;24.50;92914.00;5003443;28;20188;-72
2022/06/20 06:26:19;;;;;;;7.05;6.65;;;;;;;35.85;22.98;92927.03;5002757;28;20307;-73
2022/06/20 06:28:48;;;;;;;9.50;7.03;;;;;;;34.02;25.10;92912.25;5005258;28;20736;-72
2022/06/20 06:31:22;;;;;;;7.13;6.65;;;;;;;35.84;22.84;92916.59;5006329;28;20313;-72
2022/06/20 06:33:54;;;;;;;7.00;6.50;;;;;;;38.04;20.27;92925.31;4990324;28;20184;-71
2022/06/20 06:36:39;;;;;;;7.53;6.75;;;;;;;36.95;22.07;92928.91;5004655;28;20233;-71
2022/06/20 06:39:35;;;;;;;7.18;6.68;;;;;;;37.87;20.48;92921.25;5005277;28;20183;-72
2022/06/20 06:42:03;;;;;;;7.95;7.30;;;;;;;36.99;21.58;92917.91;5003513;28;20261;-69
2022/06/20 06:44:34;;;;;;;7.10;6.60;;;;;;;38.33;20.47;92917.69;5003483;28;20215;-70
2022/06/20 06:47:00;;;;;;;6.55;6.05;;;;;;;38.10;20.31;92911.88;5006947;28;20235;-69
2022/06/20 06:49:34;;;;;;;6.38;5.90;;;;;;;37.84;20.64;92905.03;5004376;28;20231;-68
2022/06/20 06:52:17;;;;;;;8.60;6.75;;;;;;;35.49;23.09;92896.50;5002517;28;20229;-68
2022/06/20 06:54:42;;;;;;;8.50;7.80;;;;;;;30.33;29.86;92880.22;5001815;28;20222;-67
2022/06/20 06:57:20;;;;;;;7.85;7.25;;;;;;;28.69;32.33;92866.03;5006230;28;20218;-68
2022/06/20 07:00:18;;;;;;;7.80;7.30;;;;;;;26.34;36.66;92852.28;5001234;28;20195;-69
2022/06/20 07:03:05;;;;;;;7.15;6.85;;;;;;;24.40;42.42;92840.28;5002358;28;20226;-70
2022/06/20 07:05:43;;;;;;;8.10;7.40;;;;;;;23.93;44.05;92835.28;5000653;28;20748;-69
2022/06/20 07:08:13;;;;;;;8.68;8.00;;;;;;;24.20;44.20;92833.50;5001013;28;20211;-70
2022/06/20 07:10:44;;;;;;;8.40;7.57;;;;;;;23.56;45.29;92832.34;5003706;28;20241;-69
2022/06/20 07:13:20;;;;;;;9.10;8.18;;;;;;;23.30;47.37;92834.88;5000509;28;20221;-69
2022/06/20 07:15:48;;;;;;;8.20;7.43;;;;;;;23.02;46.69;92823.63;5002407;28;20315;-69
2022/06/20 07:18:30;;;;;;;8.95;8.35;;;;;;;22.79;48.34;92830.75;5004624;28;20209;-68
2022/06/20 07:20:56;;;;;;;7.80;7.20;;;;;;;22.68;46.88;92821.00;5002149;28;20290;-68
2022/06/20 07:23:22;;;;;;;9.73;8.77;;;;;;;22.42;50.03;92816.22;5001556;28;20185;-70
2022/06/20 07:25:50;;;;;;;8.10;7.68;;;;;;;22.56;51.05;92816.56;5003307;28;20226;-68
2022/06/20 07:28:34;;;;;;;9.35;8.65;;;;;;;22.15;51.77;92819.75;5002732;28;20186;-69
2022/06/20 07:31:22;;;;;;;10.90;10.00;;;;;;;22.41;51.58;92785.41;5005709;28;20239;-69
2022/06/20 07:33:48;;;;;;;8.48;7.78;;;;;;;22.88;49.37;92822.56;5002127;28;20197;-69
2022/06/20 07:36:16;;;;;;;9.02;8.27;;;;;;;22.71;49.16;92810.41;5001360;28;20244;-68
2022/06/20 07:38:49;;;;;;;8.02;7.53;;;;;;;22.37;49.79;92824.44;5000434;28;20296;-69
2022/06/20 07:41:31;;;;;;;9.45;8.52;;;;;;;22.68;49.02;92836.97;4999477;28;20246;-69
2022/06/20 07:44:04;;;;;;;8.60;8.00;;;;;;;22.75;47.69;92824.59;5003060;28;20307;-69
2022/06/20 07:46:44;;;;;;;8.27;7.78;;;;;;;22.71;48.84;92836.28;5000504;28;20309;-70
2022/06/20 07:49:20;;;;;;;7.72;7.22;;;;;;;22.49;49.57;92827.00;5001313;28;20178;-70
2022/06/20 07:51:49;;;;;;;8.10;7.63;;;;;;;22.70;46.06;92838.16;4999220;28;20259;-69
2022/06/20 07:54:24;;;;;;;8.48;7.88;;;;;;;22.50;49.12;92817.13;5000462;28;20276;-69
2022/06/20 07:57:07;;;;;;;8.80;7.95;;;;;;;23.13;46.25;92819.28;4999913;28;20228;-69
2022/06/20 07:59:41;;;;;;;8.30;7.70;;;;;;;22.79;44.88;92824.66;5002458;28;20197;-70
2022/06/20 08:02:23;;;;;;;8.63;7.78;;;;;;;22.84;46.49;92822.50;5000129;28;20249;-68
2022/06/20 08:04:56;;;;;;;7.95;7.38;;;;;;;23.33;45.74;92823.53;5002267;28;20202;-68
2022/06/20 08:07:36;;;;;;;8.00;7.35;;;;;;;23.10;45.93;92825.31;4981711;28;20233;-68
2022/06/20 08:10:09;;;;;;;7.85;7.45;;;;;;;23.24;44.62;92825.59;4985589;28;20194;-68
2022/06/20 08:12:44;;;;;;;9.48;8.77;;;;;;;22.94;44.00;92821.94;4984478;28;20222;-68
2022/06/20 08:15:26;;;;;;;8.90;8.30;;;;;;;22.79;45.36;92817.44;4997830;28;20224;-71
2022/06/20 08:17:52;;;;;;;11.23;8.07;;;;;;;23.24;45.27;92814.16;4982800;28;20247;-68
2022/06/20 08:20:18;;;;;;;8.43;7.93;;;;;;;23.33;41.68;92806.78;4982949;28;20194;-69
2022/06/20 08:22:59;;;;;;;8.98;8.38;;;;;;;23.20;41.34;92810.66;4978791;28;20194;-70
2022/06/20 08:25:34;;;;;;;7.25;6.88;;;;;;;23.28;42.43;92815.84;5002645;28;20277;-70
2022/06/20 08:28:05;;;;;;;8.00;7.50;;;;;;;23.44;43.75;92816.50;4982091;28;20253;-70
2022/06/20 08:30:41;;;;;;;9.38;8.68;;;;;;;23.62;41.60;92814.94;4979560;28;20183;-72
2022/06/20 08:33:16;;;;;;;8.73;8.00;;;;;;;23.62;42.33;92782.97;4981284;28;20202;-71
2022/06/20 08:35:47;;;;;;;8.13;7.53;;;;;;;23.68;41.75;92797.53;4983327;28;20297;-69
2022/06/20 08:38:17;;;;;;;7.93;7.05;;;;;;;23.78;40.54;92810.28;4981329;28;20207;-70
2022/06/20 08:41:03;;;;;;;8.90;8.20;;;;;;;23.58;41.09;92795.44;4986742;28;20229;-69
2022/06/20 08:44:07;;;;;;;7.80;7.30;;;;;;;23.38;38.46;92811.81;4997576;28;20194;-70
2022/06/20 08:47:08;;;;;;;7.70;7.20;;;;;;;23.63;40.34;92800.50;4974997;28;20246;-69
2022/06/20 08:49:45;;;;;;;7.63;7.15;;;;;;;23.86;39.41;92818.41;4980436;28;20194;-70
2022/06/20 08:52:28;;;;;;;8.10;7.65;;;;;;;23.82;38.06;92809.56;4979645;28;20269;-69
2022/06/20 08:55:12;;;;;;;8.10;7.70;;;;;;;23.84;38.01;92808.09;4983312;28;20219;-70
2022/06/20 08:58:06;;;;;;;8.68;7.20;;;;;;;23.38;39.76;92807.25;4977836;28;20297;-70
2022/06/20 09:00:45;;;;;;;7.55;7.15;;;;;;;23.18;39.07;92800.38;4981801;28;20256;-69
2022/06/20 09:03:48;;;;;;;7.97;7.47;;;;;;;23.76;37.67;92801.09;4981207;28;20191;-70
2022/06/20 09:06:35;;;;;;;7.72;7.20;;;;;;;24.14;37.58;92802.91;4984396;28;20244;-72
2022/06/20 09:09:00;;;;;;;7.32;7.03;;;;;;;24.29;39.00;92810.78;5002450;28;20193;-71
2022/06/20 09:11:53;;;;;;;8.55;7.90;;;;;;;24.17;36.65;92783.50;5003853;28;20229;-71
2022/06/20 09:14:27;;;;;;;7.43;6.90;;;;;;;24.17;41.18;92792.31;5004784;28;20219;-73
2022/06/20 09:17:02;;;;;;;7.30;6.95;;;;;;;24.26;37.73;92800.03;5005133;28;20246;-73
2022/06/20 09:19:56;;;;;;;7.90;7.50;;;;;;;24.04;36.31;92784.81;5002230;28;20193;-72
2022/06/20 09:22:45;;;;;;;7.45;7.00;;;;;;;24.25;35.48;92777.91;4988247;28;20246;-73
2022/06/20 09:25:37;;;;;;;7.50;7.10;;;;;;;24.32;34.85;92775.38;5000846;28;20237;-73
2022/06/20 09:28:21;;;;;;;7.30;6.90;;;;;;;24.40;33.67;92781.56;5004598;28;20278;-72
2022/06/20 09:31:06;;;;;;;7.15;6.78;;;;;;;24.23;32.68;92774.06;5001905;28;20230;-73
2022/06/20 09:33:51;;;;;;;6.53;6.22;;;;;;;24.32;34.58;92771.91;5005184;28;20189;-72
2022/06/20 09:36:50;;;;;;;7.63;7.15;;;;;;;24.35;33.39;92779.19;5005219;28;20339;-72
2022/06/20 09:39:32;;;;;;;6.80;6.50;;;;;;;24.38;33.88;92781.16;5002977;28;20202;-72
2022/06/20 09:42:05;;;;;;;7.28;6.88;;;;;;;24.40;33.03;92771.69;5003056;28;20229;-72
2022/06/20 09:44:34;;;;;;;7.38;7.05;;;;;;;24.58;34.64;92780.69;5004108;28;20187;-73
2022/06/20 09:47:05;;;;;;;6.85;6.55;;;;;;;24.45;32.65;92781.28;5004232;28;21062;-72
2022/06/20 09:49:54;;;;;;;7.15;6.78;;;;;;;24.41;34.94;92772.44;5002636;28;20213;-72
2022/06/20 09:52:46;;;;;;;11.32;10.48;;;;;;;24.48;32.71;92775.22;5004628;28;20236;-71
2022/06/20 09:55:20;;;;;;;6.53;6.22;;;;;;;24.45;33.61;92781.28;5005264;28;20233;-72
2022/06/20 09:58:15;;;;;;;6.35;6.07;;;;;;;24.12;32.35;92773.91;5005305;28;20223;-72
2022/06/20 10:01:16;;;;;;;6.50;6.20;;;;;;;23.99;33.70;92774.44;5002056;28;20239;-73
2022/06/20 10:04:02;;;;;;;6.75;6.45;;;;;;;24.08;31.97;92769.66;4991341;28;20209;-73
2022/06/20 10:06:27;;;;;;;6.72;6.43;;;;;;;23.93;34.09;92757.94;5002809;28;20273;-73
2022/06/20 10:09:05;;;;;;;6.72;6.43;;;;;;;24.16;34.41;92769.38;5001995;28;20185;-72
2022/06/20 10:11:36;;;;;;;6.35;6.15;;;;;;;24.09;33.67;92763.19;5002564;28;20237;-72
2022/06/20 10:14:30;;;;;;;6.88;6.57;;;;;;;24.27;31.40;92766.88;5003198;28;20250;-72
2022/06/20 10:17:21;;;;;;;7.00;6.60;;;;;;;24.28;29.65;92763.09;5001246;28;20244;-73
2022/06/20 10:20:16;;;;;;;6.68;6.28;;;;;;;24.32;29.73;92761.25;5000594;28;20190;-73
2022/06/20 10:22:53;;;;;;;6.53;6.22;;;;;;;24.16;30.93;92761.38;4940348;28;20260;-74
2022/06/20 10:25:31;;;;;;;6.95;6.55;;;;;;;24.45;30.83;92765.25;5003411;28;20194;-72
2022/06/20 10:28:02;;;;;;;6.45;6.13;;;;;;;24.49;31.95;92760.72;5004531;28;20212;-72
2022/06/20 10:31:09;;;;;;;6.75;6.45;;;;;;;24.73;29.71;92763.75;5001224;28;20187;-73
2022/06/20 10:33:51;;;;;;;7.38;7.03;;;;;;;24.74;31.39;92759.19;5003204;28;20191;-74
2022/06/20 10:36:28;;;;;;;7.40;6.90;;;;;;;24.69;27.19;92749.59;5005768;28;20273;-73
2022/06/20 10:39:23;;;;;;;7.40;6.88;;;;;;;24.94;29.04;92756.03;5002271;28;20272;-73
2022/06/20 10:42:12;;;;;;;7.10;6.80;;;;;;;24.96;28.57;92751.09;5004730;28;20239;-74
2022/06/20 10:44:37;;;;;;;7.07;6.78;;;;;;;24.85;28.09;92746.75;5004790;28;20201;-74
2022/06/20 10:47:19;;;;;;;6.75;6.40;;;;;;;25.20;27.85;92741.81;5004032;28;20237;-72
2022/06/20 10:50:05;;;;;;;6.97;6.68;;;;;;;24.94;27.08;92740.00;5003022;28;20204;-72
2022/06/20 10:52:39;;;;;;;7.18;6.78;;;;;;;24.94;28.11;92737.31;5001268;28;20236;-70
2022/06/20 10:55:19;;;;;;;6.78;6.47;;;;;;;24.28;25.08;92718.47;5004892;28;20244;-70
2022/06/20 10:58:01;;;;;;;6.65;6.38;;;;;;;24.59;26.36;92742.16;5002608;28;20209;-70
2022/06/20 11:00:31;;;;;;;7.20;6.80;;;;;;;24.43;28.68;92730.13;5005697;28;20187;-71
2022/06/20 11:02:57;;;;;;;6.93;6.57;;;;;;;24.56;27.71;92724.22;4999954;28;20190;-71
2022/06/20 11:05:53;;;;;;;6.65;6.25;;;;;;;24.65;28.91;92718.63;5002263;28;20227;-71
2022/06/20 11:08:37;;;;;;;7.90;7.38;;;;;;;25.07;28.98;92719.16;5004006;28;20211;-70
2022/06/20 11:11:11;;;;;;;6.68;6.28;;;;;;;25.30;29.44;92725.13;5002147;28;20253;-71
2022/06/20 11:13:48;;;;;;;7.65;7.25;;;;;;;24.90;30.44;92707.13;5000058;28;20205;-70
2022/06/20 11:16:21;;;;;;;6.97;6.68;;;;;;;25.03;30.28;92715.66;5003504;28;20237;-72
2022/06/20 11:19:05;;;;;;;6.70;6.40;;;;;;;24.71;30.22;92709.19;4996930;28;20191;-71
2022/06/20 11:21:40;;;;;;;7.00;6.50;;;;;;;24.45;32.28;92711.88;5003931;28;20261;-71
2022/06/20 11:24:39;;;;;;;7.15;6.72;;;;;;;24.72;30.59;92700.03;4999438;28;20213;-71
2022/06/20 11:27:29;;;;;;;6.63;6.32;;;;;;;24.52;31.06;92707.38;5001680;28;20242;-74
2022/06/20 11:30:07;;;;;;;7.32;6.95;;;;;;;24.43;34.48;92704.22;4985999;28;20200;-74
2022/06/20 11:33:07;;;;;;;7.43;7.13;;;;;;;24.65;31.58;92705.25;4998727;28;20258;-76
2022/06/20 11:35:47;;;;;;;6.93;6.63;;;;;;;24.83;32.04;92698.25;4992944;28;20236;-72
2022/06/20 11:38:43;;;;;;;6.97;6.68;;;;;;;25.14;29.69;92687.16;4999991;28;20229;-73
2022/06/20 11:41:14;;;;;;;6.78;6.35;;;;;;;24.36;31.06;92693.44;5000587;28;20588;-73
2022/06/20 11:44:06;;;;;;;7.18;6.88;;;;;;;24.54;31.18;92680.31;4999751;28;20221;-74
2022/06/20 11:47:05;;;;;;;8.32;7.93;;;;;;;25.09;29.49;92687.50;5003454;28;20241;-73
2022/06/20 11:50:14;;;;;;;6.68;6.38;;;;;;;25.06;29.06;92680.19;5000515;28;20230;-73
2022/06/20 11:52:55;;;;;;;6.70;6.40;;;;;;;25.04;31.41;92677.13;4999516;28;20236;-73
2022/06/20 11:55:35;;;;;;;7.07;6.78;;;;;;;25.14;28.29;92682.59;4998728;28;20771;-73
2022/06/20 11:58:25;;;;;;;8.00;7.22;;;;;;;24.82;28.85;92681.47;5001274;28;20197;-73
2022/06/20 12:01:06;;;;;;;6.57;6.30;;;;;;;24.79;29.14;92673.41;5001191;28;20234;-73
2022/06/20 12:03:44;;;;;;;6.65;6.35;;;;;;;25.19;28.32;92668.91;4983947;28;20197;-74
2022/06/20 12:06:23;;;;;;;7.20;6.90;;;;;;;25.13;28.56;92653.56;5001597;28;20249;-73
2022/06/20 12:09:27;;;;;;;6.70;6.40;;;;;;;25.34;26.90;92648.44;5002162;28;20279;-74
2022/06/20 12:12:10;;;;;;;6.40;6.10;;;;;;;25.42;27.90;92657.31;5000109;28;20237;-73
2022/06/20 12:14:47;;;;;;;8.30;7.80;;;;;;;25.45;26.75;92659.25;5003562;28;20217;-73
2022/06/20 12:18:11;;;;;;;6.70;6.40;;;;;;;25.35;25.81;92654.56;5001827;28;20256;-74
2022/06/20 12:23:26;;;;;;;7.07;6.78;;;;;;;25.15;29.52;92651.28;4921212;29;21007;-73